Time;durP1;ratioP1;P1;durP2;ratioP2;P2;SDS_P1;SDS_P2;PMS_P1;PMS_P2;Temp;Humidity;BMP_temperature;BMP_pressure;BME280_temperature;BME280_humidity;BME280_pressure;Samples;Min_cycle;Max_cycle;Signal;HPM_P1;HPM_P2
2023/10/11 00:00:24;;;;;;;19.75;10.50;;;14.30;1.00;;;;;;7379382;19;20044;-69
2023/10/11 00:02:55;;;;;;;19.40;9.80;;;14.30;1.00;;;;;;7379113;19;20539;-69
2023/10/11 00:05:28;;;;;;;17.60;9.68;;;14.20;1.00;;;;;;7374643;19;20023;-69
2023/10/11 00:08:00;;;;;;;18.13;9.15;;;14.20;1.00;;;;;;7378846;19;20017;-70
2023/10/11 00:10:32;;;;;;;20.00;9.48;;;14.20;1.00;;;;;;7378569;19;20007;-70
2023/10/11 00:13:03;;;;;;;22.70;9.65;;;14.20;1.00;;;;;;7379430;19;20022;-70
2023/10/11 00:15:36;;;;;;;18.27;9.18;;;14.30;1.00;;;;;;7374439;19;20015;-69
2023/10/11 00:18:06;;;;;;;20.05;9.55;;;14.30;1.00;;;;;;7378947;19;20022;-69
2023/10/11 00:20:47;;;;;;;22.25;9.35;;;14.20;1.00;;;;;;7378459;19;20803;-70
2023/10/11 00:23:18;;;;;;;20.60;9.18;;;14.20;1.00;;;;;;7378873;19;20035;-70
2023/10/11 00:25:52;;;;;;;19.35;9.18;;;14.20;1.00;;;;;;7372985;19;20011;-70
2023/10/11 00:28:26;;;;;;;17.70;9.18;;;14.20;1.00;;;;;;7378915;19;20038;-70
2023/10/11 00:31:00;;;;;;;18.25;9.90;;;14.20;1.00;;;;;;7380232;19;20021;-71
2023/10/11 00:33:31;;;;;;;22.37;10.27;;;14.30;1.00;;;;;;7379812;19;20011;-70
2023/10/11 00:36:09;;;;;;;20.70;9.77;;;14.30;1.00;;;;;;7385251;19;20018;-69
2023/10/11 00:38:47;;;;;;;18.30;9.13;;;14.30;1.00;;;;;;7389467;19;20006;-69
2023/10/11 00:41:20;;;;;;;17.25;8.75;;;14.30;1.00;;;;;;7378055;19;20792;-70
2023/10/11 00:43:53;;;;;;;16.63;9.10;;;14.40;1.00;;;;;;7375605;19;20030;-70
2023/10/11 00:46:28;;;;;;;17.05;8.45;;;14.30;1.00;;;;;;7376204;19;20544;-70
2023/10/11 00:49:09;;;;;;;17.30;8.82;;;14.30;1.00;;;;;;7376546;19;20425;-70
2023/10/11 00:51:41;;;;;;;17.55;8.35;;;14.30;1.00;;;;;;7378983;19;20014;-70
2023/10/11 00:54:15;;;;;;;18.10;9.40;;;14.30;1.00;;;;;;7373679;19;20045;-70
2023/10/11 00:56:49;;;;;;;16.83;8.23;;;14.40;1.00;;;;;;7376852;19;20466;-70
2023/10/11 00:59:22;;;;;;;19.98;9.00;;;14.30;1.00;;;;;;7377740;19;21175;-70
2023/10/11 01:01:55;;;;;;;22.17;9.43;;;14.30;1.00;;;;;;7378072;19;20022;-70
2023/10/11 01:04:33;;;;;;;20.92;8.23;;;14.30;1.00;;;;;;7373484;19;20065;-70
2023/10/11 01:07:04;;;;;;;18.92;8.80;;;14.30;1.00;;;;;;7375825;19;20017;-70
2023/10/11 01:09:38;;;;;;;18.00;8.88;;;14.30;1.00;;;;;;7378295;19;20574;-70
2023/10/11 01:12:10;;;;;;;19.00;8.73;;;14.20;1.00;;;;;;7377694;19;20046;-72
2023/10/11 01:14:56;;;;;;;17.55;8.07;;;14.20;1.00;;;;;;7373640;19;20054;-70
2023/10/11 01:17:31;;;;;;;20.23;8.07;;;14.10;1.00;;;;;;7373369;19;20097;-70
2023/10/11 01:20:06;;;;;;;16.10;8.13;;;13.90;1.00;;;;;;7376757;19;20052;-70
2023/10/11 01:22:39;;;;;;;17.38;7.80;;;13.90;1.00;;;;;;7377880;19;20352;-70
2023/10/11 01:25:12;;;;;;;15.88;7.80;;;13.80;1.00;;;;;;7368419;19;20029;-70
2023/10/11 01:27:44;;;;;;;16.43;8.00;;;13.80;1.00;;;;;;7375602;19;20022;-70
2023/10/11 01:30:15;;;;;;;12.93;7.68;;;13.80;1.00;;;;;;7376414;19;20018;-70
2023/10/11 01:32:45;;;;;;;13.32;7.95;;;13.80;1.00;;;;;;7375350;19;20051;-70
2023/10/11 01:35:19;;;;;;;15.45;8.90;;;13.70;1.00;;;;;;7372210;19;20037;-70
2023/10/11 01:37:55;;;;;;;13.93;8.55;;;13.80;1.00;;;;;;7373455;19;20014;-70
2023/10/11 01:40:26;;;;;;;13.73;7.70;;;13.80;1.00;;;;;;7376267;19;20101;-70
2023/10/11 01:42:56;;;;;;;17.15;8.10;;;13.70;1.00;;;;;;7375816;19;20022;-70
2023/10/11 01:45:26;;;;;;;14.18;7.72;;;13.70;1.00;;;;;;7372056;19;20078;-70
2023/10/11 01:47:58;;;;;;;16.10;8.70;;;13.70;1.00;;;;;;7374250;19;20025;-70
2023/10/11 01:50:28;;;;;;;16.10;7.80;;;13.70;1.00;;;;;;7375053;19;20010;-70
2023/10/11 01:53:03;;;;;;;12.88;7.60;;;13.70;1.00;;;;;;7377232;19;20025;-70
2023/10/11 01:55:33;;;;;;;16.60;7.90;;;13.70;1.00;;;;;;7371408;19;20417;-70
2023/10/11 01:58:06;;;;;;;14.43;8.05;;;13.70;1.00;;;;;;7375994;19;20082;-70
2023/10/11 02:00:36;;;;;;;16.02;8.15;;;13.70;1.00;;;;;;7375214;19;20133;-70
2023/10/11 02:03:12;;;;;;;14.95;7.65;;;13.70;1.00;;;;;;7376642;19;20661;-70
2023/10/11 02:05:42;;;;;;;17.60;7.88;;;13.60;1.00;;;;;;7368488;19;20467;-70
2023/10/11 02:08:17;;;;;;;18.48;7.80;;;13.70;1.00;;;;;;7375609;19;20026;-69
2023/10/11 02:10:47;;;;;;;15.88;7.20;;;13.70;1.00;;;;;;7375949;19;20420;-70
2023/10/11 02:13:17;;;;;;;15.32;7.70;;;13.60;1.00;;;;;;7375751;19;20011;-70
2023/10/11 02:15:48;;;;;;;15.75;8.50;;;13.60;1.00;;;;;;7370310;19;20025;-70
2023/10/11 02:18:18;;;;;;;16.30;7.65;;;13.70;1.00;;;;;;7375373;19;20006;-70
2023/10/11 02:20:48;;;;;;;14.13;8.15;;;13.60;1.00;;;;;;7376179;19;20439;-70
2023/10/11 02:23:21;;;;;;;19.30;8.48;;;13.60;1.00;;;;;;7374377;19;20010;-70
2023/10/11 02:25:51;;;;;;;15.23;7.80;;;13.60;1.00;;;;;;7370576;19;20027;-70
2023/10/11 02:28:21;;;;;;;13.70;7.93;;;13.60;1.00;;;;;;7374776;19;20389;-70
2023/10/11 02:30:52;;;;;;;17.23;8.38;;;13.50;1.00;;;;;;7374592;19;20010;-70
2023/10/11 02:33:22;;;;;;;17.23;8.55;;;13.50;1.00;;;;;;7374609;19;20014;-70
2023/10/11 02:35:56;;;;;;;14.93;7.88;;;13.50;1.00;;;;;;7368045;19;20086;-70
2023/10/11 02:38:28;;;;;;;18.60;8.02;;;13.50;1.00;;;;;;7374809;19;20026;-70
2023/10/11 02:40:59;;;;;;;14.57;7.93;;;13.50;1.00;;;;;;7375133;19;20569;-70
2023/10/11 02:43:33;;;;;;;13.80;8.15;;;13.40;1.00;;;;;;7374180;19;20354;-70
2023/10/11 02:46:04;;;;;;;19.80;8.90;;;13.40;1.00;;;;;;7371258;19;20494;-70
2023/10/11 02:48:34;;;;;;;20.70;7.68;;;13.40;1.00;;;;;;7375107;19;20010;-70
2023/10/11 02:51:13;;;;;;;14.27;8.52;;;13.30;1.00;;;;;;7374374;19;20017;-70
2023/10/11 02:53:46;;;;;;;12.43;7.25;;;13.30;1.00;;;;;;7372738;19;20085;-70
2023/10/11 02:56:16;;;;;;;17.83;8.50;;;13.30;1.00;;;;;;7371584;19;20015;-70
2023/10/11 02:58:49;;;;;;;15.52;8.13;;;13.20;1.00;;;;;;7374642;19;20046;-70
2023/10/11 03:01:20;;;;;;;16.10;7.82;;;13.20;1.00;;;;;;7373159;19;20015;-70
2023/10/11 03:03:52;;;;;;;16.25;8.27;;;13.10;1.00;;;;;;7369030;19;20029;-70
2023/10/11 03:06:22;;;;;;;15.27;8.27;;;13.10;1.00;;;;;;7372114;19;20010;-68
2023/10/11 03:08:56;;;;;;;16.48;8.50;;;13.10;1.00;;;;;;7372330;19;20006;-71
2023/10/11 03:11:29;;;;;;;15.73;7.88;;;13.00;1.00;;;;;;7373441;19;20072;-70
2023/10/11 03:14:04;;;;;;;18.08;9.13;;;13.00;1.00;;;;;;7369484;19;20035;-69
2023/10/11 03:16:34;;;;;;;15.45;8.07;;;13.00;1.00;;;;;;7372659;19;20015;-68
2023/10/11 03:19:10;;;;;;;14.63;8.25;;;12.90;1.00;;;;;;7374008;19;20013;-69
2023/10/11 03:21:40;;;;;;;13.55;7.80;;;12.90;1.00;;;;;;7373899;19;20018;-69
2023/10/11 03:24:14;;;;;;;19.55;9.02;;;12.90;1.00;;;;;;7367615;19;20055;-69
2023/10/11 03:26:48;;;;;;;16.83;7.38;;;12.90;1.00;;;;;;7372007;19;20107;-70
2023/10/11 03:29:21;;;;;;;17.95;8.27;;;12.90;1.00;;;;;;7370699;19;20364;-70
2023/10/11 03:31:51;;;;;;;18.63;8.57;;;12.90;1.00;;;;;;7373931;19;20014;-70
2023/10/11 03:34:21;;;;;;;12.57;7.75;;;12.90;1.00;;;;;;7366493;19;20010;-71
2023/10/11 03:36:52;;;;;;;16.38;7.97;;;12.80;1.00;;;;;;7371028;19;20017;-70
2023/10/11 03:39:39;;;;;;;16.60;8.45;;;12.90;1.00;;;;;;7372086;19;20013;-70
2023/10/11 03:42:14;;;;;;;18.27;8.18;;;12.80;1.00;;;;;;7373904;19;20017;-70
2023/10/11 03:44:47;;;;;;;19.58;8.63;;;12.80;1.00;;;;;;7369719;19;20011;-70
2023/10/11 03:47:24;;;;;;;15.70;8.07;;;12.80;1.00;;;;;;7369954;19;20090;-70
2023/10/11 03:49:54;;;;;;;17.40;8.52;;;12.80;1.00;;;;;;7373079;19;20018;-70
2023/10/11 03:52:30;;;;;;;19.98;8.80;;;12.80;1.00;;;;;;7372295;19;20015;-70
2023/10/11 03:55:09;;;;;;;14.90;8.23;;;12.70;1.00;;;;;;7365940;19;20049;-70
2023/10/11 03:57:41;;;;;;;14.80;7.85;;;12.80;1.00;;;;;;7377909;19;20026;-70
2023/10/11 04:00:24;;;;;;;13.13;7.38;;;12.70;1.00;;;;;;7379010;19;20396;-70
2023/10/11 04:02:58;;;;;;;15.20;8.73;;;12.70;1.00;;;;;;7380279;19;20019;-70
2023/10/11 04:05:34;;;;;;;15.10;8.82;;;12.60;1.00;;;;;;7374835;19;20018;-70
2023/10/11 04:08:06;;;;;;;16.63;8.25;;;12.60;1.00;;;;;;7379765;19;20021;-70
2023/10/11 04:10:43;;;;;;;14.98;8.43;;;12.70;1.00;;;;;;7380571;19;20014;-70
2023/10/11 04:13:18;;;;;;;16.23;8.52;;;12.60;1.00;;;;;;7377956;19;20016;-70
2023/10/11 04:15:49;;;;;;;;;;;12.70;1.00;;;;;;7378174;19;20010;-68
2023/10/11 04:18:33;;;;;;;17.35;8.55;;;12.60;1.00;;;;;;7394163;19;19982;-69
2023/10/11 04:23:48;;;;;;;18.65;9.45;;;12.60;1.00;;;;;;7376643;19;20014;-69
2023/10/11 04:26:33;;;;;;;19.25;8.90;;;12.50;1.00;;;;;;7377431;19;20022;-69
2023/10/11 04:29:06;;;;;;;13.80;8.48;;;12.50;1.00;;;;;;7377078;19;20466;-70
2023/10/11 04:31:42;;;;;;;16.70;8.38;;;12.50;1.00;;;;;;7377660;19;20015;-69
2023/10/11 04:34:14;;;;;;;18.38;9.13;;;12.50;1.00;;;;;;7374224;19;20014;-69
2023/10/11 04:36:45;;;;;;;15.02;8.40;;;12.50;1.00;;;;;;7377891;19;20011;-70
2023/10/11 04:39:27;;;;;;;18.10;8.07;;;12.50;1.00;;;;;;7377660;19;20370;-70
2023/10/11 04:42:00;;;;;;;15.90;8.27;;;12.40;1.00;;;;;;7378803;19;20015;-69
2023/10/11 04:44:35;;;;;;;16.85;8.93;;;12.30;1.00;;;;;;7372984;19;20007;-69
2023/10/11 04:47:06;;;;;;;22.98;8.77;;;12.20;1.00;;;;;;7376310;19;20030;-69
2023/10/11 04:49:36;;;;;;;15.65;8.00;;;12.20;1.00;;;;;;7377136;19;20530;-69
2023/10/11 04:52:13;;;;;;;17.05;8.50;;;12.20;1.00;;;;;;7378401;19;20474;-70
2023/10/11 04:54:53;;;;;;;20.33;8.68;;;12.20;1.00;;;;;;7372110;19;20019;-70
2023/10/11 04:57:40;;;;;;;17.77;9.35;;;12.20;1.00;;;;;;7375182;19;20016;-70
2023/10/11 05:00:10;;;;;;;18.77;8.75;;;12.20;1.00;;;;;;7377864;19;20010;-69
2023/10/11 05:02:40;;;;;;;13.73;8.40;;;12.30;1.00;;;;;;7376961;19;20683;-70
2023/10/11 05:05:18;;;;;;;20.35;9.25;;;12.30;1.00;;;;;;7371688;19;20031;-71
2023/10/11 05:08:01;;;;;;;17.42;9.15;;;12.30;1.00;;;;;;7374555;19;20007;-70
2023/10/11 05:10:43;;;;;;;14.48;8.57;;;12.20;1.00;;;;;;7380302;19;20484;-69
2023/10/11 05:13:19;;;;;;;18.73;8.57;;;12.20;1.00;;;;;;7377481;19;20129;-69
2023/10/11 05:15:52;;;;;;;15.70;8.93;;;12.10;1.00;;;;;;7370548;19;20014;-69
2023/10/11 05:18:24;;;;;;;16.95;8.88;;;12.10;1.00;;;;;;7375130;19;20014;-70
2023/10/11 05:21:04;;;;;;;17.88;10.68;;;12.10;1.00;;;;;;7377247;19;20654;-69
2023/10/11 05:23:52;;;;;;;14.55;8.20;;;12.10;1.00;;;;;;7373928;19;20392;-71
2023/10/11 05:29:24;;;;;;;14.57;8.38;;;12.30;1.00;;;;;;7369381;19;20018;-71
2023/10/11 05:32:20;;;;;;;23.33;8.60;;;12.30;1.00;;;;;;7372693;19;20054;-71
2023/10/11 05:35:07;;;;;;;15.93;8.55;;;12.30;1.00;;;;;;7369215;19;20015;-70
2023/10/11 05:51:19;;;;;;;22.27;8.93;;;12.60;1.00;;;;;;7373986;19;20013;-69
2023/10/11 05:53:50;;;;;;;16.88;9.15;;;12.50;1.00;;;;;;7368968;19;20082;-70
2023/10/11 05:56:23;;;;;;;20.70;9.05;;;12.70;1.00;;;;;;7370148;19;20021;-70
2023/10/11 05:58:55;;;;;;;15.23;8.88;;;12.60;1.00;;;;;;7372994;19;20006;-68
2023/10/11 06:01:28;;;;;;;17.65;9.05;;;12.60;1.00;;;;;;7373856;19;20034;-70
2023/10/11 06:04:03;;;;;;;17.02;9.52;;;12.60;1.00;;;;;;7368249;19;20010;-69
2023/10/11 06:06:38;;;;;;;19.42;10.63;;;12.60;1.00;;;;;;7371980;19;20010;-69
2023/10/11 06:09:16;;;;;;;13.57;8.80;;;12.60;1.00;;;;;;7374211;19;20010;-69
2023/10/11 06:11:48;;;;;;;17.98;8.77;;;12.60;1.00;;;;;;7375190;19;20014;-69
2023/10/11 06:14:19;;;;;;;18.02;8.45;;;12.70;1.00;;;;;;7367763;19;20408;-70
2023/10/11 06:16:57;;;;;;;14.57;8.50;;;12.70;1.00;;;;;;7373638;19;20007;-70
2023/10/11 06:19:28;;;;;;;19.02;8.43;;;12.80;1.00;;;;;;7373070;19;20025;-69
2023/10/11 06:21:59;;;;;;;15.80;8.38;;;12.90;1.00;;;;;;7372857;19;20003;-70
2023/10/11 06:24:33;;;;;;;19.58;8.43;;;12.90;1.00;;;;;;7367466;19;20109;-70
2023/10/11 06:29:58;;;;;;;17.10;8.95;;;13.10;1.00;;;;;;7372690;19;20015;-70
2023/10/11 06:32:31;;;;;;;15.77;8.98;;;13.30;1.00;;;;;;7372312;19;20011;-70
2023/10/11 06:35:04;;;;;;;18.25;8.13;;;13.30;1.00;;;;;;7368817;19;20006;-69
2023/10/11 06:37:36;;;;;;;17.70;8.23;;;13.40;1.00;;;;;;7372479;19;20497;-69
2023/10/11 06:40:14;;;;;;;15.43;8.35;;;13.50;1.00;;;;;;7372888;19;20470;-69
2023/10/11 06:42:42;;;;;;;18.52;9.43;;;13.70;1.00;;;;;;7376299;19;21164;-69
2023/10/11 06:48:06;;;;;;;13.43;7.57;;;13.90;1.00;;;;;;7373279;19;20027;-69
2023/10/11 06:50:38;;;;;;;21.15;7.95;;;14.00;1.00;;;;;;7374500;19;20511;-70
2023/10/11 06:53:10;;;;;;;16.58;8.07;;;14.10;1.00;;;;;;7371315;19;20477;-70
2023/10/11 06:55:47;;;;;;;14.85;8.07;;;14.20;1.00;;;;;;7365458;19;20510;-70
2023/10/11 06:58:19;;;;;;;15.13;7.88;;;14.30;1.00;;;;;;7372298;19;20110;-69
2023/10/11 07:00:50;;;;;;;18.90;8.18;;;14.30;1.00;;;;;;7372429;19;20478;-70
2023/10/11 07:03:29;;;;;;;16.98;8.15;;;14.40;1.00;;;;;;7371651;19;20045;-70
2023/10/11 07:06:10;;;;;;;13.35;7.85;;;14.60;1.00;;;;;;7366131;19;21066;-70
2023/10/11 07:08:49;;;;;;;19.83;7.72;;;14.70;1.00;;;;;;7374271;19;20014;-69
2023/10/11 07:11:40;;;;;;;15.65;7.50;;;14.70;1.00;;;;;;7371867;19;20010;-70
2023/10/11 07:14:17;;;;;;;14.45;7.50;;;14.80;1.00;;;;;;7366756;19;20035;-70
2023/10/11 07:16:48;;;;;;;17.58;7.18;;;15.00;1.00;;;;;;7370962;19;20377;-70
2023/10/11 07:19:23;;;;;;;17.05;7.47;;;15.10;1.00;;;;;;7373502;19;20066;-70
2023/10/11 07:22:02;;;;;;;14.43;7.00;;;15.20;1.00;;;;;;7373243;19;20065;-69
2023/10/11 07:24:39;;;;;;;15.35;6.97;;;15.30;1.00;;;;;;7364463;19;20010;-70
2023/10/11 07:27:12;;;;;;;13.93;7.55;;;15.40;1.00;;;;;;7371637;19;20010;-69
2023/10/11 07:29:46;;;;;;;51.10;30.02;;;15.50;1.00;;;;;;7373512;19;20382;-69
2023/10/11 07:32:20;;;;;;;17.10;10.38;;;15.50;1.00;;;;;;7376257;19;20015;-69
2023/10/11 07:34:54;;;;;;;17.88;8.90;;;15.60;1.00;;;;;;7373638;19;20074;-69
2023/10/11 07:37:26;;;;;;;35.45;16.55;;;15.60;1.00;;;;;;7376302;19;20018;-69
2023/10/11 07:40:00;;;;;;;32.67;14.18;;;15.60;1.00;;;;;;7380119;19;20499;-69
2023/10/11 07:42:37;;;;;;;16.50;8.73;;;15.70;1.00;;;;;;7377664;19;20010;-70
2023/10/11 07:45:12;;;;;;;19.52;8.55;;;15.70;1.00;;;;;;7375043;19;20777;-69
2023/10/11 07:47:45;;;;;;;19.17;7.40;;;15.70;1.00;;;;;;7377350;19;20014;-70
2023/10/11 07:50:22;;;;;;;15.32;7.07;;;15.90;1.00;;;;;;7378449;19;20521;-70
2023/10/11 07:52:53;;;;;;;21.48;7.93;;;16.00;1.00;;;;;;7379690;19;20035;-70
2023/10/11 07:55:26;;;;;;;19.13;8.00;;;16.20;1.00;;;;;;7373128;19;20014;-69
2023/10/11 07:58:00;;;;;;;18.35;8.05;;;16.30;1.00;;;;;;7395436;19;20017;-69
2023/10/11 08:00:30;;;;;;;14.02;7.05;;;16.30;1.00;;;;;;7388240;19;20006;-70
2023/10/11 08:03:03;;;;;;;13.45;7.03;;;16.50;1.00;;;;;;7378353;19;20048;-69
2023/10/11 08:05:45;;;;;;;19.30;7.10;;;16.60;1.00;;;;;;7366612;19;20411;-69
2023/10/11 08:08:18;;;;;;;12.80;6.40;;;16.70;1.00;;;;;;7378046;19;20023;-70
2023/10/11 08:10:52;;;;;;;15.07;7.45;;;16.80;1.00;;;;;;7377603;19;20062;-70
2023/10/11 08:13:26;;;;;;;17.13;7.82;;;16.90;1.00;;;;;;7377961;19;20018;-70
2023/10/11 08:15:58;;;;;;;;;;;17.20;1.00;;;;;;7370089;19;20404;-70
2023/10/11 08:18:29;;;;;;;14.90;6.95;;;17.30;1.00;;;;;;7376367;19;19906;-70
2023/10/11 08:21:03;;;;;;;14.98;6.28;;;17.50;1.00;;;;;;7377485;19;20010;-70
2023/10/11 08:23:33;;;;;;;13.73;5.67;;;17.60;1.00;;;;;;7376841;19;20014;-69
2023/10/11 08:26:06;;;;;;;15.90;6.35;;;17.70;1.00;;;;;;7371188;19;20110;-69
2023/10/11 08:28:46;;;;;;;20.25;6.90;;;17.90;1.00;;;;;;7376307;19;20010;-68
2023/10/11 08:31:26;;;;;;;13.05;5.78;;;17.90;1.00;;;;;;7377255;19;20028;-69
2023/10/11 08:33:56;;;;;;;12.95;6.55;;;18.00;1.00;;;;;;7368393;19;20014;-68
2023/10/11 08:36:29;;;;;;;16.38;6.00;;;18.10;1.00;;;;;;7372115;19;20490;-70
2023/10/11 08:39:03;;;;;;;18.10;7.25;;;18.20;1.00;;;;;;7375846;19;20017;-70
2023/10/11 08:41:33;;;;;;;17.23;6.68;;;18.30;1.00;;;;;;7374337;19;20019;-68
2023/10/11 08:44:15;;;;;;;15.05;5.75;;;18.40;1.00;;;;;;7371177;19;20012;-71
2023/10/11 08:46:48;;;;;;;17.08;5.90;;;18.60;1.00;;;;;;7373890;19;20018;-70
2023/10/11 08:49:18;;;;;;;24.55;7.43;;;18.70;1.00;;;;;;7374859;19;20018;-71
2023/10/11 08:51:56;;;;;;;13.27;5.68;;;18.80;1.00;;;;;;7375491;19;20031;-69
2023/10/11 08:54:28;;;;;;;14.07;5.30;;;18.90;1.00;;;;;;7369270;19;20087;-69
2023/10/11 08:57:03;;;;;;;20.08;9.50;;;19.00;1.00;;;;;;7371864;19;20021;-70
2023/10/11 08:59:44;;;;;;;20.13;6.93;;;19.20;1.00;;;;;;7374199;19;20030;-69
2023/10/11 09:02:17;;;;;;;15.00;5.13;;;19.30;1.00;;;;;;7375383;19;20007;-70
2023/10/11 09:04:59;;;;;;;13.68;5.55;;;19.40;1.00;;;;;;7369876;19;20031;-69
2023/10/11 09:07:45;;;;;;;14.88;5.50;;;19.50;1.00;;;;;;7372763;19;20122;-70
2023/10/11 09:10:27;;;;;;;16.55;6.53;;;19.60;1.00;;;;;;7374702;19;20479;-70
2023/10/11 09:12:59;;;;;;;9.80;5.75;;;19.80;1.00;;;;;;7375186;19;20125;-71
2023/10/11 09:15:42;;;;;;;15.45;5.80;;;20.00;1.00;;;;;;7367559;19;20138;-69
2023/10/11 09:18:15;;;;;;;12.93;5.50;;;20.20;1.00;;;;;;7373878;19;20518;-70
2023/10/11 09:20:55;;;;;;;15.77;5.70;;;20.30;1.00;;;;;;7372711;19;20022;-70
2023/10/11 09:23:39;;;;;;;12.63;5.38;;;20.30;1.00;;;;;;7373792;19;20038;-70
2023/10/11 09:26:12;;;;;;;12.38;5.88;;;20.50;1.00;;;;;;7369460;19;20097;-70
2023/10/11 09:28:56;;;;;;;13.57;5.00;;;20.60;1.00;;;;;;7372872;19;20019;-70
2023/10/11 09:31:27;;;;;;;12.98;5.30;;;20.70;1.00;;;;;;7371986;19;20013;-70
2023/10/11 09:33:59;;;;;;;16.05;5.55;;;20.80;1.00;;;;;;7368414;19;20022;-70
2023/10/11 09:36:31;;;;;;;13.73;4.90;;;20.90;1.00;;;;;;7370193;19;20010;-70
2023/10/11 09:39:05;;;;;;;10.63;5.53;;;21.10;1.00;;;;;;7373549;19;20023;-70
2023/10/11 09:41:41;;;;;;;16.58;4.97;;;21.20;1.00;;;;;;7374379;19;20018;-70
2023/10/11 09:44:14;;;;;;;13.77;5.50;;;21.30;1.00;;;;;;7368769;19;20046;-70
2023/10/11 09:46:45;;;;;;;17.58;5.95;;;21.40;1.00;;;;;;7372087;19;20038;-70
2023/10/11 09:49:21;;;;;;;14.82;5.18;;;21.60;1.00;;;;;;7371721;19;20014;-71
2023/10/11 09:51:51;;;;;;;15.52;5.13;;;21.80;1.00;;;;;;7373497;19;20010;-70
2023/10/11 09:54:27;;;;;;;16.15;5.10;;;21.90;1.00;;;;;;7365821;19;20010;-71
2023/10/11 09:57:08;;;;;;;15.82;5.47;;;21.90;1.00;;;;;;7371852;19;20082;-70
2023/10/11 09:59:52;;;;;;;12.80;5.25;;;22.00;1.00;;;;;;7374168;19;21260;-70
2023/10/11 10:02:28;;;;;;;11.10;4.68;;;22.20;1.00;;;;;;7373712;19;20022;-70
2023/10/11 10:04:57;;;;;;;12.85;5.57;;;22.20;1.00;;;;;;7369296;19;20025;-70
2023/10/11 10:07:32;;;;;;;22.52;8.25;;;22.20;1.00;;;;;;7371148;19;20015;-70
2023/10/11 10:10:06;;;;;;;15.48;5.45;;;22.30;1.00;;;;;;7374549;19;20395;-70
2023/10/11 10:12:40;;;;;;;13.00;5.63;;;22.50;1.00;;;;;;7370670;19;20022;-70
2023/10/11 10:15:13;;;;;;;15.20;5.18;;;22.60;1.00;;;;;;7367559;19;20340;-70
2023/10/11 10:18:15;;;;;;;12.73;4.80;;;22.70;1.00;;;;;;7372566;19;20048;-70
2023/10/11 10:20:46;;;;;;;11.10;5.07;;;22.80;1.00;;;;;;7374341;19;20106;-68
2023/10/11 10:23:37;;;;;;;17.65;5.65;;;22.80;1.00;;;;;;7371896;19;20013;-70
2023/10/11 10:26:43;;;;;;;11.48;4.60;;;23.00;1.00;;;;;;7366829;19;20421;-71
2023/10/11 10:29:15;;;;;;;12.88;4.93;;;23.30;1.00;;;;;;7372755;19;20086;-69
2023/10/11 10:32:10;;;;;;;11.13;4.80;;;23.20;1.00;;;;;;7371844;19;20018;-69
2023/10/11 10:34:42;;;;;;;14.93;5.30;;;23.60;1.00;;;;;;7364967;19;20007;-71
2023/10/11 10:37:56;;;;;;;19.23;4.90;;;23.70;1.00;;;;;;7370552;19;20015;-70
2023/10/11 10:40:28;;;;;;;16.57;5.33;;;23.60;1.00;;;;;;7371629;19;20038;-71
2023/10/11 10:43:19;;;;;;;8.80;4.20;;;23.80;1.00;;;;;;7373245;19;20263;-70
2023/10/11 10:45:51;;;;;;;11.90;4.68;;;24.10;1.00;;;;;;7362681;19;20014;-70
2023/10/11 10:48:23;;;;;;;16.35;4.97;;;24.10;1.00;;;;;;7371207;19;20006;-70
2023/10/11 10:50:52;;;;;;;11.05;4.72;;;24.10;1.00;;;;;;7372735;19;20032;-69
2023/10/11 10:53:27;;;;;;;12.20;4.47;;;23.80;1.00;;;;;;7371459;19;20379;-70
2023/10/11 10:55:58;;;;;;;13.90;4.63;;;24.10;1.00;;;;;;7363651;19;20002;-70
2023/10/11 10:58:30;;;;;;;13.52;4.60;;;24.10;1.00;;;;;;7371327;19;20015;-70
2023/10/11 11:00:59;;;;;;;17.27;5.18;;;24.10;1.00;;;;;;7370626;19;20013;-70
2023/10/11 11:03:32;;;;;;;15.05;4.90;;;24.20;1.00;;;;;;7370229;19;20042;-70
2023/10/11 11:06:05;;;;;;;14.70;5.07;;;24.10;1.00;;;;;;7366221;19;20010;-70
2023/10/11 11:08:37;;;;;;;16.65;4.90;;;24.20;1.00;;;;;;7378165;19;20668;-70
2023/10/11 11:11:25;;;;;;;19.40;5.00;;;24.20;1.00;;;;;;7379272;19;20019;-70
2023/10/11 11:13:55;;;;;;;11.00;4.63;;;24.10;1.00;;;;;;7375351;19;20018;-70
2023/10/11 11:16:27;;;;;;;8.50;4.30;;;24.30;1.00;;;;;;7376265;19;20007;-70
2023/10/11 11:19:00;;;;;;;16.83;4.88;;;24.40;1.00;;;;;;7380948;19;20022;-71
2023/10/11 11:21:32;;;;;;;16.73;4.70;;;24.30;1.00;;;;;;7378445;19;20012;-69
2023/10/11 11:24:17;;;;;;;11.07;4.55;;;24.50;1.00;;;;;;7372752;19;20014;-69
2023/10/11 11:26:48;;;;;;;13.57;5.10;;;24.50;1.00;;;;;;7377962;19;20010;-71
2023/10/11 11:29:31;;;;;;;10.38;3.90;;;24.50;1.00;;;;;;7379591;19;20026;-69
2023/10/11 11:32:14;;;;;;;16.05;4.47;;;24.60;1.00;;;;;;7379063;19;20059;-69
2023/10/11 11:35:00;;;;;;;;;;;24.80;1.00;;;;;;7373507;19;20006;-70
2023/10/11 11:37:31;;;;;;;15.13;4.40;;;24.90;1.00;;;;;;7377516;19;19914;-70
2023/10/11 11:40:18;;;;;;;10.05;4.03;;;24.80;1.00;;;;;;7396020;19;20014;-69
2023/10/11 11:42:49;;;;;;;7.85;4.15;;;24.60;1.00;;;;;;7389117;19;20031;-70
2023/10/11 11:45:20;;;;;;;13.75;4.22;;;24.90;1.00;;;;;;7374006;19;20034;-70
2023/10/11 11:47:58;;;;;;;8.90;3.25;;;25.00;1.00;;;;;;7378725;19;20356;-70
2023/10/11 11:50:30;;;;;;;9.30;3.72;;;25.00;1.00;;;;;;7378352;19;20031;-70
2023/10/11 11:53:00;;;;;;;8.52;3.85;;;24.90;1.00;;;;;;7379311;19;20019;-70
2023/10/11 11:55:28;;;;;;;13.45;3.97;;;25.20;1.00;;;;;;7369797;19;20014;-70
2023/10/11 11:57:58;;;;;;;11.82;3.75;;;25.40;1.00;;;;;;7377383;19;21335;-70
2023/10/11 12:00:38;;;;;;;14.55;4.10;;;25.40;1.00;;;;;;7376984;19;20014;-70
2023/10/11 12:03:10;;;;;;;11.25;3.63;;;25.60;1.00;;;;;;7378641;19;20606;-70
2023/10/11 12:05:40;;;;;;;7.38;3.25;;;25.40;1.00;;;;;;7368238;19;20014;-69
2023/10/11 12:08:18;;;;;;;8.95;3.30;;;25.50;1.00;;;;;;7374195;19;20462;-69
2023/10/11 12:10:50;;;;;;;7.35;3.38;;;25.40;1.00;;;;;;7376900;19;20050;-71
2023/10/11 12:13:25;;;;;;;10.45;3.10;;;25.70;1.00;;;;;;7377547;19;20468;-70
2023/10/11 12:16:07;;;;;;;11.45;2.83;;;25.80;1.00;;;;;;7371272;19;20045;-70
2023/10/11 12:18:39;;;;;;;13.30;3.40;;;25.50;1.00;;;;;;7374637;19;20038;-70
2023/10/11 12:21:15;;;;;;;9.50;3.35;;;25.70;1.00;;;;;;7378729;19;20015;-70
2023/10/11 12:23:48;;;;;;;8.50;3.60;;;25.60;1.00;;;;;;7372527;19;20039;-70
2023/10/11 12:26:20;;;;;;;10.07;2.75;;;25.90;1.00;;;;;;7373122;19;20082;-70
2023/10/11 12:28:51;;;;;;;6.47;2.95;;;25.90;1.00;;;;;;7379609;19;20023;-70
2023/10/11 12:31:23;;;;;;;7.05;3.22;;;25.80;1.00;;;;;;7378038;19;20018;-70
2023/10/11 12:33:53;;;;;;;6.88;2.97;;;25.80;1.00;;;;;;7373193;19;20530;-70
2023/10/11 12:36:28;;;;;;;8.57;3.33;;;25.70;1.00;;;;;;7373359;19;20023;-69
2023/10/11 12:39:01;;;;;;;9.13;3.10;;;25.80;1.00;;;;;;7377667;19;20453;-70
2023/10/11 12:41:31;;;;;;;14.80;3.15;;;25.60;1.00;;;;;;7375733;19;20006;-70
2023/10/11 12:44:01;;;;;;;8.38;2.88;;;25.70;1.00;;;;;;7372238;19;20010;-69
2023/10/11 12:46:34;;;;;;;5.57;2.58;;;25.70;1.00;;;;;;7373897;19;20006;-69
2023/10/11 12:49:12;;;;;;;8.80;3.13;;;25.80;1.00;;;;;;7377425;19;20010;-70
2023/10/11 12:51:44;;;;;;;15.48;3.05;;;25.90;1.00;;;;;;7375473;19;20479;-70
2023/10/11 12:54:14;;;;;;;8.90;3.25;;;25.90;1.00;;;;;;7370862;19;20125;-69
2023/10/11 12:56:45;;;;;;;10.68;3.70;;;25.90;1.00;;;;;;7372337;19;20014;-69
2023/10/11 12:59:16;;;;;;;9.73;3.17;;;25.90;1.00;;;;;;7377075;19;20093;-69
2023/10/11 13:01:52;;;;;;;12.32;3.75;;;25.90;1.00;;;;;;7373551;19;20029;-69
2023/10/11 13:04:30;;;;;;;9.38;3.35;;;26.00;1.00;;;;;;7369901;19;20045;-69
2023/10/11 13:07:01;;;;;;;9.35;3.47;;;26.00;1.00;;;;;;7373088;19;20126;-70
2023/10/11 13:09:35;;;;;;;11.75;3.20;;;26.20;1.00;;;;;;7375725;19;20010;-69
2023/10/11 13:12:06;;;;;;;9.25;3.10;;;26.00;1.00;;;;;;7376700;19;20006;-71
2023/10/11 13:14:38;;;;;;;7.75;3.00;;;25.90;1.00;;;;;;7369756;19;20054;-69
2023/10/11 13:17:15;;;;;;;7.97;3.03;;;25.90;1.00;;;;;;7374245;19;20031;-68
2023/10/11 13:19:46;;;;;;;8.75;3.17;;;26.10;1.00;;;;;;7374303;19;20019;-70
2023/10/11 13:22:16;;;;;;;9.55;3.70;;;26.10;1.00;;;;;;7377174;19;20010;-70
2023/10/11 13:24:47;;;;;;;7.72;3.42;;;26.00;1.00;;;;;;7367087;19;20082;-70
2023/10/11 13:27:21;;;;;;;4.60;2.78;;;26.10;1.00;;;;;;7372409;19;20119;-71
2023/10/11 13:29:52;;;;;;;9.07;3.33;;;25.80;1.00;;;;;;7373077;19;20054;-71
2023/10/11 13:32:24;;;;;;;8.60;3.47;;;25.80;1.00;;;;;;7374728;19;20344;-70
2023/10/11 13:34:54;;;;;;;5.50;2.83;;;26.00;1.00;;;;;;7368635;19;20090;-69
2023/10/11 13:37:26;;;;;;;9.63;3.10;;;25.90;1.00;;;;;;7371012;19;20013;-69
2023/10/11 13:40:05;;;;;;;11.23;2.90;;;26.00;1.00;;;;;;7374589;19;20160;-69
2023/10/11 13:42:37;;;;;;;5.70;3.13;;;25.90;1.00;;;;;;7373500;19;20078;-70
2023/10/11 13:45:10;;;;;;;7.10;2.63;;;25.90;1.00;;;;;;7367299;19;20494;-69
2023/10/11 13:47:44;;;;;;;7.97;3.08;;;25.90;1.00;;;;;;7369202;19;20018;-69
2023/10/11 13:50:20;;;;;;;7.38;3.08;;;25.90;1.00;;;;;;7373354;19;20015;-69